Time;durP1;ratioP1;P1;durP2;ratioP2;P2;SDS_P1;SDS_P2;PMS_P1;PMS_P2;Temp;Humidity;BMP_temperature;BMP_pressure;BME280_temperature;BME280_humidity;BME280_pressure;Samples;Min_cycle;Max_cycle;Signal;HPM_P1;HPM_P2
2022/01/22 00:02:19;;;;;;;1.80;1.50;;;;;;;;;;4899218;29;20036;-81
2022/01/22 00:04:45;;;;;;;2.78;1.95;;;;;;;;;;4882318;29;20119;-81
2022/01/22 00:07:10;;;;;;;1.80;1.42;;;;;;;;;;4899545;29;20115;-79
2022/01/22 00:09:39;;;;;;;3.80;1.80;;;;;;;;;;4898488;29;20032;-81
2022/01/22 00:12:08;;;;;;;1.75;1.33;;;;;;;;;;4899022;29;20461;-78
2022/01/22 00:14:34;;;;;;;3.83;2.10;;;;;;;;;;4898751;29;20032;-81
2022/01/22 00:17:02;;;;;;;2.65;1.52;;;;;;;;;;4897116;29;20028;-79
2022/01/22 00:19:28;;;;;;;1.20;1.10;;;;;;;;;;4898502;29;20040;-78
2022/01/22 00:21:54;;;;;;;1.80;1.38;;;;;;;;;;4898452;29;20035;-80
2022/01/22 00:24:20;;;;;;;2.78;1.52;;;;;;;;;;4897905;29;20025;-80
2022/01/22 00:26:46;;;;;;;6.38;1.77;;;;;;;;;;4898396;29;20138;-80
2022/01/22 00:29:13;;;;;;;3.55;1.98;;;;;;;;;;4898044;29;20532;-81
2022/01/22 00:31:42;;;;;;;3.63;1.92;;;;;;;;;;4881519;29;20075;-79
2022/01/22 00:34:08;;;;;;;1.75;1.30;;;;;;;;;;4897169;29;20056;-78
2022/01/22 00:36:36;;;;;;;1.95;1.75;;;;;;;;;;4896699;29;20048;-81
2022/01/22 00:39:03;;;;;;;3.08;1.52;;;;;;;;;;4898270;29;20702;-81
2022/01/22 00:41:28;;;;;;;3.08;2.03;;;;;;;;;;4898106;29;20492;-80
2022/01/22 00:43:54;;;;;;;2.95;1.92;;;;;;;;;;4897673;29;20032;-80
2022/01/22 00:46:20;;;;;;;1.23;1.08;;;;;;;;;;4881114;29;20040;-82
2022/01/22 00:48:46;;;;;;;1.50;1.23;;;;;;;;;;4897571;29;20043;-81
2022/01/22 00:51:12;;;;;;;1.90;1.25;;;;;;;;;;4897929;29;20029;-80
2022/01/22 00:53:37;;;;;;;1.63;1.20;;;;;;;;;;4898256;29;20037;-80
2022/01/22 00:56:03;;;;;;;2.92;1.88;;;;;;;;;;4897715;29;20036;-79
2022/01/22 00:58:29;;;;;;;1.88;1.52;;;;;;;;;;4897955;29;20047;-82
2022/01/22 01:00:54;;;;;;;4.22;1.88;;;;;;;;;;4897586;29;20070;-81
2022/01/22 01:03:20;;;;;;;1.50;1.20;;;;;;;;;;4898204;29;20457;-81
2022/01/22 01:05:45;;;;;;;2.78;1.40;;;;;;;;;;4898371;29;20392;-78
2022/01/22 01:08:11;;;;;;;2.08;1.27;;;;;;;;;;4898196;29;20441;-81
2022/01/22 01:10:36;;;;;;;7.00;3.20;;;;;;;;;;4897430;29;20500;-81
2022/01/22 01:13:02;;;;;;;2.42;1.85;;;;;;;;;;4879788;29;20067;-79
2022/01/22 01:34:32;;;;;;;3.55;1.88;;;;;;;;;;4896897;29;20040;-80
2022/01/22 01:36:57;;;;;;;3.20;1.70;;;;;;;;;;4880339;29;20397;-79
2022/01/22 01:39:28;;;;;;;1.48;1.17;;;;;;;;;;4880305;29;20469;-81
2022/01/22 01:44:20;;;;;;;3.83;2.70;;;;;;;;;;4897071;29;20029;-79
2022/01/22 01:46:49;;;;;;;2.55;1.40;;;;;;;;;;4897035;29;20028;-80
2022/01/22 01:49:15;;;;;;;2.75;1.50;;;;;;;;;;4895621;29;20036;-80
2022/01/22 01:51:41;;;;;;;5.90;2.00;;;;;;;;;;4896967;29;20461;-80
2022/01/22 01:54:34;;;;;;;4.20;2.10;;;;;;;;;;4894634;29;20030;-79
2022/01/22 01:59:38;;;;;;;2.78;1.75;;;;;;;;;;4896960;29;20035;-82
2022/01/22 02:02:05;;;;;;;4.15;1.73;;;;;;;;;;4896907;29;20035;-81
2022/01/22 02:04:31;;;;;;;3.83;2.42;;;;;;;;;;4895076;29;20458;-79
2022/01/22 02:06:57;;;;;;;6.60;2.05;;;;;;;;;;4896425;29;20024;-80
2022/01/22 02:09:23;;;;;;;4.03;2.40;;;;;;;;;;4896737;29;20034;-81
2022/01/22 02:11:57;;;;;;;3.22;1.38;;;;;;;;;;4896940;29;20059;-81
2022/01/22 02:25:26;;;;;;;12.18;3.38;;;;;;;;;;4896491;29;20136;-80
2022/01/22 02:27:52;;;;;;;4.25;2.17;;;;;;;;;;4896518;29;20414;-82
2022/01/22 02:30:21;;;;;;;5.75;1.95;;;;;;;;;;4894586;29;20122;-80
2022/01/22 02:33:11;;;;;;;8.80;2.53;;;;;;;;;;4893261;29;20113;-80
2022/01/22 02:35:47;;;;;;;7.78;1.70;;;;;;;;;;4895443;29;20035;-79
2022/01/22 02:38:18;;;;;;;2.03;1.30;;;;;;;;;;4895983;29;20143;-78
2022/01/22 02:40:48;;;;;;;1.40;1.27;;;;;;;;;;4895996;29;20029;-80
2022/01/22 02:43:15;;;;;;;3.17;1.77;;;;;;;;;;4896078;29;20085;-80
2022/01/22 02:45:42;;;;;;;3.33;1.83;;;;;;;;;;4896107;29;20048;-77
2022/01/22 02:48:08;;;;;;;2.88;1.95;;;;;;;;;;4895925;29;20481;-79
2022/01/22 02:50:33;;;;;;;1.98;1.50;;;;;;;;;;4895935;29;20092;-79
2022/01/22 02:53:04;;;;;;;3.08;1.80;;;;;;;;;;4895758;29;20084;-79
2022/01/22 02:55:29;;;;;;;3.35;1.67;;;;;;;;;;4895106;29;20029;-79
2022/01/22 02:57:55;;;;;;;2.60;1.58;;;;;;;;;;4895891;29;20037;-79
2022/01/22 03:00:22;;;;;;;1.58;1.15;;;;;;;;;;4895844;29;20047;-79
2022/01/22 03:02:49;;;;;;;3.28;1.30;;;;;;;;;;4896039;29;20029;-81
2022/01/22 03:05:15;;;;;;;3.78;2.05;;;;;;;;;;4879136;29;20051;-80
2022/01/22 03:07:43;;;;;;;3.38;2.45;;;;;;;;;;4896190;29;20036;-78
2022/01/22 03:10:11;;;;;;;2.30;1.50;;;;;;;;;;4879344;29;20040;-78
2022/01/22 03:18:18;;;;;;;2.13;1.17;;;;;;;;;;4877633;29;20041;-81
2022/01/22 03:29:30;;;;;;;1.80;1.00;;;;;;;;;;4891855;29;20084;-78
2022/01/22 03:31:40;;;;;;;1.85;1.30;;;;;;;;;;4894208;29;20108;-79
2022/01/22 03:34:05;;;;;;;4.00;1.92;;;;;;;;;;4899653;29;20489;-79
2022/01/22 03:36:33;;;;;;;4.07;1.20;;;;;;;;;;4899488;29;20115;-79
2022/01/22 03:39:00;;;;;;;2.53;1.55;;;;;;;;;;4899428;29;20060;-79
2022/01/22 03:41:25;;;;;;;1.92;1.63;;;;;;;;;;4899517;29;20028;-81
2022/01/22 03:43:52;;;;;;;4.40;2.38;;;;;;;;;;4898114;29;20413;-82
2022/01/22 03:46:17;;;;;;;2.72;1.67;;;;;;;;;;4899339;29;20032;-82
2022/01/22 03:48:43;;;;;;;2.03;0.80;;;;;;;;;;4899262;29;20037;-81
2022/01/22 03:51:09;;;;;;;3.08;1.58;;;;;;;;;;4882185;29;20092;-82
2022/01/22 03:53:34;;;;;;;5.38;1.17;;;;;;;;;;4898675;29;20036;-83
2022/01/22 03:56:04;;;;;;;2.42;1.08;;;;;;;;;;4882113;29;20048;-80
2022/01/22 03:58:31;;;;;;;;;;;;;;;;;;4899297;29;20076;-79
2022/01/22 04:01:23;;;;;;;0.93;0.68;;;;;;;;;;4898628;29;19942;-82
2022/01/22 04:03:46;;;;;;;2.53;0.93;;;;;;;;;;4897858;29;20077;-81
2022/01/22 04:08:58;;;;;;;1.45;0.95;;;;;;;;;;4899050;29;20043;-79
2022/01/22 04:11:24;;;;;;;3.08;1.27;;;;;;;;;;4899208;29;20166;-79
2022/01/22 04:13:52;;;;;;;2.28;1.20;;;;;;;;;;4898558;29;20107;-80
2022/01/22 04:16:18;;;;;;;1.35;1.10;;;;;;;;;;4898773;29;20037;-79
2022/01/22 04:27:08;;;;;;;4.97;1.30;;;;;;;;;;4897701;29;20036;-80
2022/01/22 04:29:34;;;;;;;2.05;0.93;;;;;;;;;;4897962;29;20488;-81
2022/01/22 04:31:59;;;;;;;1.70;1.20;;;;;;;;;;4898345;29;20031;-80
2022/01/22 04:34:25;;;;;;;1.10;0.82;;;;;;;;;;4898015;29;20060;-80
2022/01/22 04:36:50;;;;;;;0.98;0.88;;;;;;;;;;4898036;29;20080;-82
2022/01/22 04:39:19;;;;;;;2.03;1.75;;;;;;;;;;4898092;29;20107;-79
2022/01/22 04:41:44;;;;;;;1.30;0.90;;;;;;;;;;4898116;29;20032;-80
2022/01/22 04:44:10;;;;;;;8.10;2.08;;;;;;;;;;4896386;29;20036;-79
2022/01/22 04:46:53;;;;;;;4.97;1.70;;;;;;;;;;4881159;29;20029;-80
2022/01/22 04:57:19;;;;;;;5.90;2.05;;;;;;;;;;4897283;29;20039;-79
2022/01/22 04:59:45;;;;;;;1.85;0.98;;;;;;;;;;4897986;29;20032;-80
2022/01/22 05:02:10;;;;;;;3.42;1.20;;;;;;;;;;4896581;29;20072;-80
2022/01/22 05:04:36;;;;;;;2.70;1.60;;;;;;;;;;4896194;29;20123;-78
2022/01/22 05:07:02;;;;;;;1.20;0.85;;;;;;;;;;4897448;29;20029;-80
2022/01/22 05:09:28;;;;;;;1.67;0.93;;;;;;;;;;4896570;29;20035;-78
2022/01/22 05:11:53;;;;;;;2.08;0.80;;;;;;;;;;4880446;29;20373;-78
2022/01/22 05:14:19;;;;;;;3.08;1.08;;;;;;;;;;4877877;29;20028;-80
2022/01/22 05:16:44;;;;;;;1.55;1.33;;;;;;;;;;4880420;29;20396;-78
2022/01/22 05:19:19;;;;;;;1.98;1.10;;;;;;;;;;4896700;29;20035;-79
2022/01/22 05:21:46;;;;;;;2.78;1.42;;;;;;;;;;4895734;29;20537;-80
2022/01/22 05:24:16;;;;;;;3.72;1.48;;;;;;;;;;4880278;29;20040;-81
2022/01/22 05:30:04;;;;;;;9.55;3.10;;;;;;;;;;4896244;29;20387;-81
2022/01/22 05:37:45;;;;;;;2.55;1.27;;;;;;;;;;4891561;29;20074;-81
2022/01/22 05:40:11;;;;;;;2.17;1.40;;;;;;;;;;4896393;29;20481;-79
2022/01/22 05:42:36;;;;;;;1.00;0.80;;;;;;;;;;4895845;29;20469;-79
2022/01/22 05:45:04;;;;;;;2.33;0.90;;;;;;;;;;4895677;29;20040;-79
2022/01/22 05:47:30;;;;;;;2.22;1.25;;;;;;;;;;4896908;29;20072;-79
2022/01/22 05:49:55;;;;;;;2.05;1.40;;;;;;;;;;4894984;29;20489;-80
2022/01/22 05:52:32;;;;;;;2.70;0.98;;;;;;;;;;4896277;29;20032;-79
2022/01/22 05:55:39;;;;;;;2.22;1.65;;;;;;;;;;4894926;29;20035;-81
2022/01/22 06:00:42;;;;;;;3.17;0.98;;;;;;;;;;4895969;29;20048;-79
2022/01/22 06:03:08;;;;;;;2.40;1.00;;;;;;;;;;4896127;29;20033;-80
2022/01/22 06:05:33;;;;;;;1.55;1.05;;;;;;;;;;4896315;29;20040;-79
2022/01/22 06:07:59;;;;;;;1.83;1.42;;;;;;;;;;4894748;29;20024;-81
2022/01/22 06:10:29;;;;;;;2.90;1.67;;;;;;;;;;4895779;29;20036;-80
2022/01/22 06:13:16;;;;;;;;;;;;;;;;;;4896080;29;20024;-79
2022/01/22 06:15:42;;;;;;;6.65;3.10;;;;;;;;;;4895413;29;19924;-79
2022/01/22 06:18:14;;;;;;;5.13;3.25;;;;;;;;;;5068287;28;20441;-80
2022/01/22 06:20:39;;;;;;;4.80;2.25;;;;;;;;;;5071174;28;20436;-79
2022/01/22 06:23:05;;;;;;;3.78;2.60;;;;;;;;;;5063453;28;20116;-79
2022/01/22 06:25:31;;;;;;;4.07;1.88;;;;;;;;;;5067378;28;20056;-80
2022/01/22 06:27:56;;;;;;;4.70;2.55;;;;;;;;;;5078539;28;20033;-79
2022/01/22 06:30:22;;;;;;;5.22;2.33;;;;;;;;;;5064089;28;20033;-79
2022/01/22 06:32:48;;;;;;;3.45;2.55;;;;;;;;;;5074453;28;20449;-80
2022/01/22 06:35:14;;;;;;;10.50;3.75;;;;;;;;;;5066868;28;20056;-79
2022/01/22 06:37:39;;;;;;;3.40;1.83;;;;;;;;;;5075299;28;20024;-78
2022/01/22 06:42:31;;;;;;;5.10;2.08;;;;;;;;;;5073809;28;20020;-79
2022/01/22 06:44:58;;;;;;;3.00;1.25;;;;;;;;;;5064390;28;20450;-80
2022/01/22 06:47:25;;;;;;;2.97;1.73;;;;;;;;;;5064536;28;20025;-79
2022/01/22 06:49:51;;;;;;;3.03;1.95;;;;;;;;;;5072963;28;20033;-81
2022/01/22 06:52:16;;;;;;;3.13;1.70;;;;;;;;;;5072883;28;20036;-80
2022/01/22 06:54:45;;;;;;;6.43;3.28;;;;;;;;;;5070901;28;20389;-80
2022/01/22 06:57:11;;;;;;;9.17;5.00;;;;;;;;;;5063818;28;20111;-79
2022/01/22 06:59:37;;;;;;;18.02;9.05;;;;;;;;;;5077827;28;20040;-79
2022/01/22 07:02:03;;;;;;;14.50;7.50;;;;;;;;;;5072651;28;20788;-79
2022/01/22 07:04:31;;;;;;;7.18;4.70;;;;;;;;;;5069312;28;20033;-80
2022/01/22 07:06:57;;;;;;;6.95;3.97;;;;;;;;;;5069510;28;20032;-78
2022/01/22 07:09:23;;;;;;;4.60;2.65;;;;;;;;;;5076301;28;20063;-80
2022/01/22 07:11:49;;;;;;;5.93;3.00;;;;;;;;;;5069108;28;20437;-81
2022/01/22 07:14:15;;;;;;;2.03;1.70;;;;;;;;;;5069311;28;20040;-80
2022/01/22 07:16:41;;;;;;;3.03;2.13;;;;;;;;;;5066789;28;20183;-80
2022/01/22 07:19:06;;;;;;;2.67;2.05;;;;;;;;;;5068282;28;20443;-80
2022/01/22 07:21:32;;;;;;;3.63;2.22;;;;;;;;;;5072670;28;20550;-81
2022/01/22 07:26:30;;;;;;;6.43;3.13;;;;;;;;;;5067968;28;20089;-80
2022/01/22 07:28:56;;;;;;;4.63;2.50;;;;;;;;;;5057672;28;20030;-81
2022/01/22 07:31:24;;;;;;;3.13;2.20;;;;;;;;;;5051791;28;20025;-80
2022/01/22 07:33:50;;;;;;;2.95;1.90;;;;;;;;;;5051104;28;20488;-80
2022/01/22 07:36:16;;;;;;;3.53;2.38;;;;;;;;;;5055156;28;20114;-79
2022/01/22 07:38:42;;;;;;;3.13;1.83;;;;;;;;;;5054858;28;20029;-80
2022/01/22 07:41:08;;;;;;;3.45;2.35;;;;;;;;;;5052847;28;20040;-79
2022/01/22 07:43:34;;;;;;;2.78;2.05;;;;;;;;;;5052402;28;20025;-78
2022/01/22 07:46:00;;;;;;;2.75;1.98;;;;;;;;;;5056341;28;20021;-80
2022/01/22 07:48:26;;;;;;;3.05;1.92;;;;;;;;;;5049542;28;20079;-78
2022/01/22 07:50:51;;;;;;;3.28;1.95;;;;;;;;;;5052940;28;20112;-79
2022/01/22 07:53:17;;;;;;;4.22;2.28;;;;;;;;;;5052963;28;20064;-79
2022/01/22 07:55:42;;;;;;;6.35;2.17;;;;;;;;;;5049915;28;20032;-79
2022/01/22 07:58:08;;;;;;;2.65;2.03;;;;;;;;;;5052330;28;20477;-81
2022/01/22 08:00:34;;;;;;;3.00;2.15;;;;;;;;;;5052629;28;20040;-78
2022/01/22 08:02:59;;;;;;;6.70;1.95;;;;;;;;;;5051101;28;20029;-78
2022/01/22 08:05:25;;;;;;;2.63;2.08;;;;;;;;;;5058140;28;20028;-81
2022/01/22 08:07:50;;;;;;;2.38;1.50;;;;;;;;;;5050381;28;20031;-79
2022/01/22 08:10:17;;;;;;;3.55;2.50;;;;;;;;;;5052802;28;20028;-80
2022/01/22 08:12:43;;;;;;;4.45;1.23;;;;;;;;;;5046953;28;20041;-81
2022/01/22 08:15:11;;;;;;;2.95;1.40;;;;;;;;;;5056917;28;20063;-80
2022/01/22 08:17:38;;;;;;;2.13;1.30;;;;;;;;;;5048446;28;20041;-78
2022/01/22 08:20:05;;;;;;;2.55;1.40;;;;;;;;;;5048152;28;20044;-80
2022/01/22 08:22:30;;;;;;;2.88;1.83;;;;;;;;;;5045391;28;20040;-80
2022/01/22 08:24:59;;;;;;;5.47;2.00;;;;;;;;;;5051681;28;20120;-78
2022/01/22 08:29:53;;;;;;;1.60;1.50;;;;;;;;;;5047149;28;20036;-78
2022/01/22 08:32:44;;;;;;;3.38;2.05;;;;;;;;;;5051527;28;20512;-78
2022/01/22 08:37:54;;;;;;;4.05;2.40;;;;;;;;;;5050404;28;20074;-78
2022/01/22 08:40:20;;;;;;;1.88;1.67;;;;;;;;;;5048017;28;20033;-79
2022/01/22 08:42:45;;;;;;;2.13;1.40;;;;;;;;;;5050963;28;20487;-78
2022/01/22 08:45:11;;;;;;;1.73;1.13;;;;;;;;;;5050338;28;20025;-78
2022/01/22 08:47:37;;;;;;;4.13;2.40;;;;;;;;;;5053842;28;20460;-79
2022/01/22 08:50:04;;;;;;;2.90;1.40;;;;;;;;;;5045644;28;20039;-78
2022/01/22 08:52:33;;;;;;;2.75;1.90;;;;;;;;;;5048987;28;20033;-78
2022/01/22 08:54:59;;;;;;;2.50;1.58;;;;;;;;;;5046003;28;20025;-78
2022/01/22 08:57:25;;;;;;;6.22;3.15;;;;;;;;;;5049555;28;20111;-78
2022/01/22 08:59:50;;;;;;;3.92;2.00;;;;;;;;;;5053838;28;20087;-77
2022/01/22 09:02:16;;;;;;;3.75;2.13;;;;;;;;;;5052252;28;20043;-78
2022/01/22 09:04:41;;;;;;;3.53;2.30;;;;;;;;;;5044741;28;20033;-78
2022/01/22 09:07:07;;;;;;;3.78;1.80;;;;;;;;;;5046178;28;20048;-78
2022/01/22 09:09:35;;;;;;;4.22;2.17;;;;;;;;;;5049947;28;20032;-77
2022/01/22 09:12:02;;;;;;;3.13;2.00;;;;;;;;;;5048799;28;20040;-77
2022/01/22 09:14:27;;;;;;;3.80;2.10;;;;;;;;;;5050680;28;20031;-79
2022/01/22 09:16:53;;;;;;;4.68;2.88;;;;;;;;;;5047094;28;20480;-78
2022/01/22 09:19:22;;;;;;;3.28;2.17;;;;;;;;;;5049672;28;20025;-78
2022/01/22 09:21:48;;;;;;;3.58;2.63;;;;;;;;;;5050094;28;20021;-78
2022/01/22 09:24:15;;;;;;;3.13;1.77;;;;;;;;;;5049771;28;20044;-77
2022/01/22 09:26:41;;;;;;;3.88;2.20;;;;;;;;;;5048169;28;20050;-78
2022/01/22 09:29:07;;;;;;;5.70;3.38;;;;;;;;;;5050277;28;20128;-77
2022/01/22 09:31:33;;;;;;;3.80;2.70;;;;;;;;;;5048224;28;20032;-78
2022/01/22 09:34:00;;;;;;;3.53;2.67;;;;;;;;;;5047303;28;20033;-80
2022/01/22 09:36:28;;;;;;;4.95;2.75;;;;;;;;;;5045432;28;20159;-78
2022/01/22 09:38:54;;;;;;;5.10;2.88;;;;;;;;;;5047003;28;20052;-76
2022/01/22 09:41:21;;;;;;;5.60;2.70;;;;;;;;;;5046230;28;20033;-77
2022/01/22 09:43:47;;;;;;;2.90;1.80;;;;;;;;;;5045506;28;20056;-79
2022/01/22 09:46:13;;;;;;;4.40;2.63;;;;;;;;;;5051742;28;20033;-78
2022/01/22 09:48:40;;;;;;;5.88;3.00;;;;;;;;;;5052003;28;20033;-79
2022/01/22 09:51:06;;;;;;;2.25;1.50;;;;;;;;;;5044589;28;20108;-80
2022/01/22 09:53:31;;;;;;;5.30;2.05;;;;;;;;;;5042811;28;20116;-77
2022/01/22 09:55:57;;;;;;;2.90;1.73;;;;;;;;;;5043950;28;20469;-78
2022/01/22 09:58:23;;;;;;;3.17;2.25;;;;;;;;;;5048868;28;20074;-79
2022/01/22 10:00:49;;;;;;;4.18;2.50;;;;;;;;;;5044593;28;20029;-79
2022/01/22 10:03:19;;;;;;;3.38;2.00;;;;;;;;;;5050696;28;20020;-76
2022/01/22 10:05:45;;;;;;;2.25;1.75;;;;;;;;;;5043130;28;20053;-79
2022/01/22 10:08:34;;;;;;;3.47;1.67;;;;;;;;;;5043284;28;20060;-81
2022/01/22 10:11:01;;;;;;;4.28;1.88;;;;;;;;;;5048659;28;20056;-78
2022/01/22 10:13:39;;;;;;;3.95;2.13;;;;;;;;;;5045315;28;20512;-78
2022/01/22 10:16:24;;;;;;;2.58;1.92;;;;;;;;;;5045588;28;20033;-78
2022/01/22 10:19:19;;;;;;;2.38;1.70;;;;;;;;;;5045732;28;20098;-79
2022/01/22 10:21:49;;;;;;;2.47;1.83;;;;;;;;;;5045334;28;20440;-78
2022/01/22 10:24:34;;;;;;;2.85;1.80;;;;;;;;;;5044782;28;20399;-79
2022/01/22 10:27:26;;;;;;;2.50;1.40;;;;;;;;;;5047047;28;20461;-79
2022/01/22 10:30:15;;;;;;;3.05;1.63;;;;;;;;;;5044137;28;20032;-80
2022/01/22 10:35:17;;;;;;;5.05;2.33;;;;;;;;;;5047495;28;20029;-79
2022/01/22 10:37:44;;;;;;;4.00;2.53;;;;;;;;;;5044735;28;20025;-78
2022/01/22 10:40:28;;;;;;;3.63;1.90;;;;;;;;;;5048085;28;20037;-77
2022/01/22 10:43:15;;;;;;;3.78;1.92;;;;;;;;;;5047389;28;20035;-78
2022/01/22 10:45:55;;;;;;;3.70;2.08;;;;;;;;;;5045154;28;20028;-79
2022/01/22 10:48:21;;;;;;;;;;;;;;;;;;5047488;28;20017;-77
2022/01/22 10:51:06;;;;;;;1.33;1.23;;;;;;;;;;5044853;28;19924;-77
2022/01/22 10:53:48;;;;;;;2.55;1.77;;;;;;;;;;5047135;28;20146;-78
2022/01/22 10:56:19;;;;;;;2.88;1.70;;;;;;;;;;5043685;28;20045;-79
2022/01/22 10:58:58;;;;;;;4.47;2.03;;;;;;;;;;5049002;28;20025;-77
2022/01/22 11:01:28;;;;;;;2.83;1.40;;;;;;;;;;5047646;28;20029;-77
2022/01/22 11:04:11;;;;;;;6.93;2.80;;;;;;;;;;5047920;28;20449;-78
2022/01/22 11:06:39;;;;;;;2.72;1.75;;;;;;;;;;5046581;28;20562;-79
2022/01/22 11:09:07;;;;;;;3.83;2.13;;;;;;;;;;5050260;28;20033;-78
2022/01/22 11:11:37;;;;;;;2.20;1.50;;;;;;;;;;5050097;28;20337;-77
2022/01/22 11:14:08;;;;;;;2.75;1.80;;;;;;;;;;5048918;28;20028;-78
2022/01/22 11:16:34;;;;;;;2.63;1.88;;;;;;;;;;5053383;28;20804;-78
2022/01/22 11:19:01;;;;;;;9.45;5.50;;;;;;;;;;5047894;28;20031;-78
2022/01/22 11:21:27;;;;;;;2.72;2.00;;;;;;;;;;5049470;28;20059;-80
2022/01/22 11:23:53;;;;;;;4.18;2.47;;;;;;;;;;5047754;28;20021;-80
2022/01/22 11:26:19;;;;;;;3.97;2.40;;;;;;;;;;5045862;28;20029;-78
2022/01/22 11:28:45;;;;;;;5.22;3.13;;;;;;;;;;5048915;28;20039;-78
2022/01/22 11:31:14;;;;;;;3.60;2.03;;;;;;;;;;5047928;28;20029;-78
2022/01/22 11:33:42;;;;;;;3.42;2.65;;;;;;;;;;5053226;28;20028;-79
2022/01/22 11:36:19;;;;;;;4.50;3.50;;;;;;;;;;5042464;28;20531;-78
2022/01/22 11:38:54;;;;;;;5.72;3.78;;;;;;;;;;5053761;28;20025;-79
2022/01/22 11:41:21;;;;;;;5.15;2.50;;;;;;;;;;5048366;28;20108;-80
2022/01/22 11:44:09;;;;;;;4.38;2.17;;;;;;;;;;5048787;28;20469;-76
2022/01/22 11:46:39;;;;;;;4.13;2.25;;;;;;;;;;5049238;28;20020;-79
2022/01/22 11:49:26;;;;;;;6.97;2.22;;;;;;;;;;5045664;28;20029;-79
2022/01/22 11:51:54;;;;;;;1.95;1.52;;;;;;;;;;5044796;28;20025;-79
2022/01/22 11:54:23;;;;;;;4.32;2.05;;;;;;;;;;5049120;28;20037;-77
2022/01/22 11:56:52;;;;;;;6.25;2.38;;;;;;;;;;5049722;28;20028;-81
2022/01/22 11:59:21;;;;;;;5.95;2.22;;;;;;;;;;5047578;28;20091;-81
2022/01/22 12:01:53;;;;;;;4.63;2.78;;;;;;;;;;5049816;28;20146;-82
2022/01/22 12:04:26;;;;;;;3.00;2.08;;;;;;;;;;5039604;28;20033;-79
2022/01/22 12:07:03;;;;;;;3.17;1.92;;;;;;;;;;5042432;28;20028;-79
2022/01/22 12:15:07;;;;;;;3.47;1.98;;;;;;;;;;5051274;28;20044;-79
2022/01/22 12:17:54;;;;;;;3.63;1.80;;;;;;;;;;5050311;28;20742;-78
2022/01/22 12:23:09;;;;;;;4.90;3.08;;;;;;;;;;5046310;28;20044;-79
2022/01/22 12:25:35;;;;;;;6.22;2.58;;;;;;;;;;5049563;28;20032;-79
2022/01/22 12:28:02;;;;;;;6.07;3.67;;;;;;;;;;5050533;28;20021;-80
2022/01/22 12:30:39;;;;;;;8.75;4.38;;;;;;;;;;5042309;28;20033;-78
2022/01/22 12:33:12;;;;;;;6.93;3.42;;;;;;;;;;5047168;28;20033;-86
2022/01/22 12:35:39;;;;;;;4.85;3.70;;;;;;;;;;5050607;28;20036;-80
2022/01/22 12:38:18;;;;;;;6.55;3.30;;;;;;;;;;5049783;28;20048;-79
2022/01/22 12:40:45;;;;;;;8.80;5.15;;;;;;;;;;5051123;28;20027;-79
2022/01/22 12:43:15;;;;;;;8.75;4.65;;;;;;;;;;5049911;28;20140;-78
2022/01/22 12:45:44;;;;;;;5.18;3.50;;;;;;;;;;5046405;28;20029;-78
2022/01/22 12:48:13;;;;;;;4.63;2.50;;;;;;;;;;5048490;28;20400;-79
2022/01/22 12:50:39;;;;;;;3.28;2.05;;;;;;;;;;5050022;28;20377;-80
2022/01/22 12:53:10;;;;;;;3.22;2.45;;;;;;;;;;5047490;28;20041;-79
2022/01/22 12:56:00;;;;;;;2.92;1.92;;;;;;;;;;5054486;28;20022;-79
2022/01/22 12:58:27;;;;;;;6.03;2.03;;;;;;;;;;5047506;28;20056;-81
2022/01/22 13:01:28;;;;;;;2.50;1.52;;;;;;;;;;5049355;28;20033;-79
2022/01/22 13:03:55;;;;;;;1.77;1.17;;;;;;;;;;5050968;28;20029;-81
2022/01/22 13:06:35;;;;;;;2.33;1.20;;;;;;;;;;5050875;28;20033;-80
2022/01/22 13:09:01;;;;;;;;;;;;;;;;;;5047107;28;20087;-78
2022/01/22 13:11:28;;;;;;;1.38;0.95;;;;;;;;;;5048808;28;19912;-80
2022/01/22 13:13:54;;;;;;;3.15;2.50;;;;;;;;;;5046788;28;20701;-81
2022/01/22 13:16:21;;;;;;;2.95;1.95;;;;;;;;;;5054356;28;20420;-79
2022/01/22 13:18:56;;;;;;;3.83;2.50;;;;;;;;;;5049599;28;20032;-79
2022/01/22 13:21:22;;;;;;;2.17;1.67;;;;;;;;;;5054794;28;20460;-81
2022/01/22 13:24:01;;;;;;;2.47;1.55;;;;;;;;;;5049644;28;20507;-77
2022/01/22 13:26:55;;;;;;;3.03;1.77;;;;;;;;;;5051118;28;20032;-80
2022/01/22 13:29:23;;;;;;;4.70;2.55;;;;;;;;;;5055883;28;20026;-81
2022/01/22 13:32:17;;;;;;;1.48;1.17;;;;;;;;;;5049199;28;20036;-78
2022/01/22 13:38:00;;;;;;;17.70;8.32;;;;;;;;;;5048041;28;20397;-78
2022/01/22 13:49:02;;;;;;;2.42;1.80;;;;;;;;;;5046705;28;20043;-80
2022/01/22 13:51:28;;;;;;;3.28;1.92;;;;;;;;;;5048771;28;20064;-80
2022/01/22 13:53:55;;;;;;;4.70;3.08;;;;;;;;;;5048036;28;20431;-81
2022/01/22 13:57:03;;;;;;;3.00;2.08;;;;;;;;;;5044570;28;20129;-78
2022/01/22 13:59:32;;;;;;;4.60;3.15;;;;;;;;;;5043308;28;20028;-80
2022/01/22 14:02:28;;;;;;;4.38;2.85;;;;;;;;;;5050343;28;20029;-79
2022/01/22 14:05:00;;;;;;;3.90;2.03;;;;;;;;;;5047242;28;20043;-79
2022/01/22 14:07:41;;;;;;;3.80;2.78;;;;;;;;;;5060381;28;20073;-79
2022/01/22 14:10:13;;;;;;;3.13;2.40;;;;;;;;;;5045143;28;20037;-77
2022/01/22 14:12:42;;;;;;;5.32;2.05;;;;;;;;;;5055350;28;20052;-79
2022/01/22 14:15:13;;;;;;;;;;;;;;;;;;5051949;28;20032;-77
2022/01/22 14:20:46;;;;;;;7.40;3.47;;;;;;;;;;5045787;28;20048;-77
2022/01/22 14:23:17;;;;;;;5.88;2.83;;;;;;;;;;5045599;28;20031;-78
2022/01/22 14:26:00;;;;;;;5.43;3.10;;;;;;;;;;5047542;28;20029;-78
2022/01/22 14:28:46;;;;;;;3.05;1.67;;;;;;;;;;5043757;28;20033;-77
2022/01/22 14:31:18;;;;;;;5.28;2.33;;;;;;;;;;5045585;28;20064;-80
2022/01/22 14:33:43;;;;;;;3.95;1.98;;;;;;;;;;5049216;28;20033;-80
2022/01/22 14:36:15;;;;;;;2.45;1.75;;;;;;;;;;5048263;28;20041;-78
2022/01/22 14:47:03;;;;;;;2.97;1.75;;;;;;;;;;5052761;28;20542;-78
2022/01/22 14:49:32;;;;;;;4.70;2.28;;;;;;;;;;5053015;28;20025;-78
2022/01/22 14:51:58;;;;;;;3.05;2.40;;;;;;;;;;5048513;28;20021;-78
2022/01/22 14:54:25;;;;;;;5.65;2.85;;;;;;;;;;5054536;28;20477;-77
2022/01/22 14:56:51;;;;;;;2.03;1.65;;;;;;;;;;5052213;28;20021;-79
2022/01/22 14:59:18;;;;;;;5.82;3.22;;;;;;;;;;5050932;28;20059;-79
2022/01/22 15:01:44;;;;;;;9.23;4.32;;;;;;;;;;5048845;28;20036;-81
2022/01/22 15:04:09;;;;;;;5.20;2.97;;;;;;;;;;5051337;28;20024;-80
2022/01/22 15:06:35;;;;;;;3.15;1.98;;;;;;;;;;5052076;28;20021;-79
2022/01/22 15:09:01;;;;;;;3.42;1.85;;;;;;;;;;5050451;28;20029;-80
2022/01/22 15:11:27;;;;;;;3.15;2.00;;;;;;;;;;5056050;28;20107;-82
2022/01/22 15:13:52;;;;;;;2.38;1.67;;;;;;;;;;5049833;28;20434;-80
2022/01/22 15:16:19;;;;;;;1.52;1.10;;;;;;;;;;5049543;28;20044;-79
2022/01/22 15:18:52;;;;;;;3.00;1.65;;;;;;;;;;5046202;28;20105;-78
2022/01/22 15:21:18;;;;;;;3.00;1.73;;;;;;;;;;5050374;28;20075;-79
2022/01/22 15:23:44;;;;;;;2.25;1.85;;;;;;;;;;5052490;28;20037;-77
2022/01/22 15:26:09;;;;;;;2.28;1.63;;;;;;;;;;5057856;28;20091;-77
2022/01/22 15:28:43;;;;;;;14.70;2.00;;;;;;;;;;5054748;28;20032;-79
2022/01/22 15:31:26;;;;;;;1.75;1.23;;;;;;;;;;5049089;28;20532;-79
2022/01/22 15:33:54;;;;;;;1.85;1.30;;;;;;;;;;5054471;28;20040;-79
2022/01/22 15:36:20;;;;;;;2.90;1.67;;;;;;;;;;5051930;28;20032;-80
2022/01/22 15:38:46;;;;;;;1.30;1.20;;;;;;;;;;5055918;28;20178;-79
2022/01/22 15:41:11;;;;;;;1.58;1.48;;;;;;;;;;5050920;28;20056;-80
2022/01/22 15:43:37;;;;;;;5.03;1.85;;;;;;;;;;5050293;28;20029;-81
2022/01/22 15:46:02;;;;;;;2.83;1.75;;;;;;;;;;5048339;28;20524;-81
2022/01/22 15:48:29;;;;;;;7.28;3.70;;;;;;;;;;5049590;28;20029;-80
2022/01/22 15:50:55;;;;;;;5.00;2.40;;;;;;;;;;5049602;28;20029;-78
2022/01/22 15:53:20;;;;;;;111.32;52.60;;;;;;;;;;5051256;28;20379;-79
2022/01/22 15:55:50;;;;;;;3.65;1.98;;;;;;;;;;5053906;28;20078;-82
2022/01/22 15:58:15;;;;;;;2.08;1.30;;;;;;;;;;5055669;28;20016;-78
2022/01/22 16:00:42;;;;;;;7.45;3.08;;;;;;;;;;5051869;28;20361;-79
2022/01/22 16:03:08;;;;;;;2.55;2.00;;;;;;;;;;5050813;28;20025;-79
2022/01/22 16:05:34;;;;;;;3.33;1.27;;;;;;;;;;5043200;28;20124;-79
2022/01/22 16:08:02;;;;;;;4.25;1.77;;;;;;;;;;5048635;28;20017;-79
2022/01/22 16:10:27;;;;;;;4.57;2.75;;;;;;;;;;5049632;28;20463;-78
2022/01/22 16:12:54;;;;;;;4.10;2.50;;;;;;;;;;5045258;28;20029;-80
2022/01/22 16:15:19;;;;;;;15.02;2.70;;;;;;;;;;5053262;28;20040;-80
2022/01/22 16:17:46;;;;;;;2.72;1.50;;;;;;;;;;5046480;28;20397;-80
2022/01/22 16:20:12;;;;;;;8.07;1.77;;;;;;;;;;5040870;28;20025;-80
2022/01/22 16:22:37;;;;;;;6.65;2.92;;;;;;;;;;5044725;28;20356;-80
2022/01/22 16:25:04;;;;;;;4.90;2.72;;;;;;;;;;5038123;28;20541;-79
2022/01/22 16:27:31;;;;;;;3.10;2.83;;;;;;;;;;5051670;28;20029;-80
2022/01/22 16:29:57;;;;;;;3.58;2.00;;;;;;;;;;5044883;28;20030;-79
2022/01/22 16:32:24;;;;;;;3.83;2.83;;;;;;;;;;5053860;28;20111;-78
2022/01/22 16:34:51;;;;;;;8.52;5.90;;;;;;;;;;5047765;28;20056;-81
2022/01/22 16:37:18;;;;;;;5.40;2.83;;;;;;;;;;5060416;28;20025;-80
2022/01/22 16:39:43;;;;;;;4.20;3.08;;;;;;;;;;5062042;28;20119;-79
2022/01/22 16:42:14;;;;;;;4.20;2.33;;;;;;;;;;5052660;28;20112;-80
2022/01/22 16:57:56;;;;;;;1.92;1.70;;;;;;;;;;5060165;28;20029;-80
2022/01/22 17:00:27;;;;;;;6.32;3.72;;;;;;;;;;5084486;28;20026;-79
2022/01/22 17:02:55;;;;;;;4.28;2.80;;;;;;;;;;5049690;28;20530;-80
2022/01/22 17:05:21;;;;;;;4.38;2.72;;;;;;;;;;5044059;28;20016;-78
2022/01/22 17:15:33;;;;;;;4.70;1.83;;;;;;;;;;5044102;28;20681;-79
2022/01/22 17:17:59;;;;;;;3.92;2.75;;;;;;;;;;5052649;28;20037;-78
2022/01/22 17:20:25;;;;;;;4.18;2.55;;;;;;;;;;5052404;28;20035;-80